Time;durP1;ratioP1;P1;durP2;ratioP2;P2;SDS_P1;SDS_P2;PMS_P1;PMS_P2;Temp;Humidity;BMP_temperature;BMP_pressure;BME280_temperature;BME280_humidity;BME280_pressure;Samples;Min_cycle;Max_cycle;Signal;HPM_P1;HPM_P2
2022/09/15 00:00:26;;;;;;;0.63;0.40;;;17.80;99.90;;;;;;5074060;28;20438;-75
2022/09/15 00:02:53;;;;;;;0.50;0.50;;;17.90;99.90;;;;;;5073674;28;20503;-75
2022/09/15 00:05:20;;;;;;;0.40;0.40;;;17.90;99.90;;;;;;5073846;28;20467;-75
2022/09/15 00:07:47;;;;;;;0.50;0.40;;;17.90;99.90;;;;;;5073655;28;20801;-75
2022/09/15 00:10:14;;;;;;;0.40;0.30;;;17.90;99.90;;;;;;5074159;28;20482;-75
2022/09/15 00:12:42;;;;;;;0.57;0.50;;;17.90;99.90;;;;;;5073333;28;21000;-75
2022/09/15 00:15:12;;;;;;;0.40;0.40;;;17.90;99.90;;;;;;5073670;28;20815;-75
2022/09/15 00:17:38;;;;;;;0.63;0.47;;;17.90;99.90;;;;;;5073294;28;20829;-75
2022/09/15 00:20:06;;;;;;;0.50;0.47;;;17.80;99.90;;;;;;5073506;28;20437;-75
2022/09/15 00:22:33;;;;;;;0.50;0.30;;;17.80;99.90;;;;;;5074175;28;20827;-75
2022/09/15 00:25:00;;;;;;;0.40;0.30;;;17.80;99.90;;;;;;5073599;28;20503;-75
2022/09/15 00:27:27;;;;;;;2.60;0.40;;;17.70;99.90;;;;;;5073308;28;20499;-75
2022/09/15 00:29:55;;;;;;;0.40;0.40;;;17.70;99.90;;;;;;5073296;28;20449;-75
2022/09/15 00:32:21;;;;;;;0.30;0.30;;;17.70;99.90;;;;;;5073223;28;20936;-75
2022/09/15 00:34:50;;;;;;;0.33;0.30;;;17.80;99.90;;;;;;5073502;28;20453;-75
2022/09/15 00:37:17;;;;;;;0.40;0.40;;;17.80;99.90;;;;;;5073542;28;20425;-75
2022/09/15 00:39:44;;;;;;;0.77;0.40;;;17.80;99.90;;;;;;5073338;28;20981;-75
2022/09/15 00:42:15;;;;;;;0.77;0.77;;;17.70;99.90;;;;;;5073316;28;20483;-75
2022/09/15 00:44:52;;;;;;;0.50;0.40;;;17.70;99.90;;;;;;5073475;28;20467;-75
2022/09/15 00:47:24;;;;;;;0.40;0.40;;;17.70;99.90;;;;;;5073036;28;20436;-75
2022/09/15 00:49:54;;;;;;;0.40;0.40;;;17.70;99.90;;;;;;5073401;28;20452;-75
2022/09/15 00:52:27;;;;;;;0.70;0.60;;;17.70;99.90;;;;;;5073012;28;20483;-75
2022/09/15 00:54:58;;;;;;;0.30;0.30;;;17.80;99.90;;;;;;5073393;28;20417;-75
2022/09/15 00:57:29;;;;;;;0.40;0.30;;;17.80;99.90;;;;;;5073177;28;20418;-75
2022/09/15 00:59:59;;;;;;;1.50;0.50;;;17.80;99.90;;;;;;5073306;28;20436;-75
2022/09/15 01:02:30;;;;;;;0.40;0.33;;;17.80;99.90;;;;;;5073109;28;20480;-75
2022/09/15 01:04:58;;;;;;;0.40;0.30;;;17.80;99.90;;;;;;5073254;28;20491;-75
2022/09/15 01:07:32;;;;;;;0.70;0.40;;;17.80;99.90;;;;;;5073227;28;20452;-75
2022/09/15 01:10:04;;;;;;;0.67;0.40;;;17.70;99.90;;;;;;5073582;28;20449;-75
2022/09/15 01:12:30;;;;;;;0.50;0.33;;;17.80;99.90;;;;;;5073145;28;20468;-75
2022/09/15 01:15:00;;;;;;;0.40;0.40;;;17.70;99.90;;;;;;5072914;28;20433;-75
2022/09/15 01:17:36;;;;;;;0.70;0.50;;;17.70;99.90;;;;;;5074283;28;20463;-75
2022/09/15 01:20:36;;;;;;;0.40;0.40;;;17.60;99.90;;;;;;5076885;28;20927;-75
2022/09/15 01:23:20;;;;;;;0.70;0.50;;;17.70;99.90;;;;;;5076731;28;20484;-75
2022/09/15 01:26:13;;;;;;;0.40;0.40;;;17.70;99.90;;;;;;5077079;28;20443;-75
2022/09/15 01:29:11;;;;;;;0.37;0.37;;;17.60;99.90;;;;;;5077002;28;20428;-75
2022/09/15 01:34:33;;;;;;;0.43;0.43;;;17.60;99.90;;;;;;5076142;28;20456;-75
2022/09/15 01:37:04;;;;;;;0.40;0.30;;;17.60;99.90;;;;;;5076822;28;20444;-75
2022/09/15 01:39:36;;;;;;;0.67;0.40;;;17.60;99.90;;;;;;5076766;28;20441;-75
2022/09/15 01:42:08;;;;;;;0.50;0.30;;;17.50;99.90;;;;;;5076411;28;20428;-75
2022/09/15 01:44:38;;;;;;;0.40;0.40;;;17.60;99.90;;;;;;5076694;28;20430;-75
2022/09/15 01:47:11;;;;;;;0.40;0.37;;;17.60;99.90;;;;;;5076650;28;20432;-75
2022/09/15 01:49:46;;;;;;;0.97;0.37;;;17.60;99.90;;;;;;5076584;28;20424;-75
2022/09/15 01:52:15;;;;;;;0.40;0.40;;;17.50;99.90;;;;;;5076161;28;20432;-75
2022/09/15 01:54:47;;;;;;;0.40;0.40;;;17.40;99.90;;;;;;5076465;28;20449;-75
2022/09/15 01:57:16;;;;;;;0.40;0.40;;;17.40;99.90;;;;;;5076441;28;20444;-75
2022/09/15 01:59:43;;;;;;;0.40;0.30;;;17.40;99.90;;;;;;5076374;28;20548;-75
2022/09/15 02:02:14;;;;;;;0.30;0.30;;;17.40;99.90;;;;;;5076120;28;20817;-75
2022/09/15 02:04:46;;;;;;;0.40;0.40;;;17.40;99.90;;;;;;5076066;28;20417;-75
2022/09/15 02:07:19;;;;;;;0.40;0.40;;;17.40;99.90;;;;;;5076305;28;20436;-75
2022/09/15 02:09:53;;;;;;;0.40;0.30;;;17.40;99.90;;;;;;5075917;28;20425;-75
2022/09/15 02:12:27;;;;;;;1.43;0.50;;;17.40;99.90;;;;;;5076013;28;20433;-75
2022/09/15 02:14:57;;;;;;;0.40;0.33;;;17.40;99.90;;;;;;5076968;28;20433;-75
2022/09/15 02:17:31;;;;;;;0.43;0.33;;;17.40;99.90;;;;;;5075708;28;20820;-75
2022/09/15 02:20:08;;;;;;;0.43;0.33;;;17.50;99.90;;;;;;5076045;28;20441;-75
2022/09/15 02:22:38;;;;;;;0.40;0.33;;;17.50;99.90;;;;;;5075557;28;20468;-75
2022/09/15 02:25:08;;;;;;;0.40;0.40;;;17.50;99.90;;;;;;5075957;28;20461;-75
2022/09/15 02:27:39;;;;;;;0.53;0.40;;;17.40;99.90;;;;;;5075527;28;20477;-75
2022/09/15 02:30:10;;;;;;;1.03;0.60;;;17.40;99.90;;;;;;5075381;28;20440;-76
2022/09/15 02:32:42;;;;;;;1.00;0.43;;;17.40;99.90;;;;;;5075673;28;20483;-75
2022/09/15 02:35:10;;;;;;;0.40;0.30;;;17.50;99.90;;;;;;5075762;28;20437;-76
2022/09/15 02:37:38;;;;;;;0.37;0.30;;;17.50;99.90;;;;;;5075395;28;20823;-76
2022/09/15 02:40:06;;;;;;;0.73;0.43;;;17.50;99.90;;;;;;5075299;28;20990;-76
2022/09/15 02:42:33;;;;;;;0.50;0.30;;;17.40;99.90;;;;;;5075258;28;20501;-76
2022/09/15 02:45:01;;;;;;;0.40;0.30;;;17.40;99.90;;;;;;5076156;28;20448;-76
2022/09/15 02:47:28;;;;;;;0.50;0.30;;;17.30;99.90;;;;;;5075238;28;21132;-76
2022/09/15 02:49:56;;;;;;;0.40;0.33;;;17.30;99.90;;;;;;5075866;28;20473;-76
2022/09/15 02:52:23;;;;;;;0.40;0.40;;;17.20;99.90;;;;;;5075188;28;20480;-76
2022/09/15 02:54:50;;;;;;;0.40;0.37;;;17.10;99.90;;;;;;5075363;28;20453;-76
2022/09/15 02:57:17;;;;;;;0.40;0.40;;;17.10;99.90;;;;;;5075170;28;20452;-76
2022/09/15 03:02:28;;;;;;;0.50;0.40;;;17.00;99.90;;;;;;5075009;28;20527;-76
2022/09/15 03:04:56;;;;;;;0.83;0.73;;;17.00;99.90;;;;;;5075079;28;20850;-76
2022/09/15 03:07:23;;;;;;;0.40;0.30;;;16.90;99.90;;;;;;5074992;28;20951;-76
2022/09/15 03:09:50;;;;;;;0.50;0.40;;;17.00;99.90;;;;;;5075497;28;20790;-76
2022/09/15 03:12:17;;;;;;;0.40;0.30;;;17.00;99.90;;;;;;5074967;28;20445;-76
2022/09/15 03:14:45;;;;;;;0.40;0.40;;;17.00;99.90;;;;;;5074978;28;20468;-76
2022/09/15 03:17:12;;;;;;;0.90;0.50;;;17.00;99.90;;;;;;5075280;28;20444;-76
2022/09/15 03:19:39;;;;;;;0.30;0.30;;;17.00;99.90;;;;;;5074627;28;20437;-76
2022/09/15 03:22:08;;;;;;;0.40;0.33;;;17.10;99.90;;;;;;5074767;28;20441;-76
2022/09/15 03:24:35;;;;;;;0.50;0.50;;;17.10;99.90;;;;;;5074390;28;20469;-76
2022/09/15 03:27:01;;;;;;;0.30;0.30;;;17.10;99.90;;;;;;5074347;28;20848;-76
2022/09/15 03:29:28;;;;;;;0.50;0.40;;;17.20;99.90;;;;;;5074673;28;20452;-76
2022/09/15 03:31:55;;;;;;;0.30;0.30;;;17.10;99.90;;;;;;5074328;28;20948;-76
2022/09/15 03:34:21;;;;;;;0.40;0.40;;;17.10;99.90;;;;;;5074205;28;20467;-76
2022/09/15 03:36:48;;;;;;;0.80;0.47;;;17.20;99.90;;;;;;5074522;28;20464;-76
2022/09/15 03:39:16;;;;;;;0.30;0.30;;;17.10;99.90;;;;;;5074466;28;20445;-76
2022/09/15 03:41:43;;;;;;;0.50;0.40;;;17.10;99.90;;;;;;5073781;28;20445;-76
2022/09/15 03:44:10;;;;;;;0.60;0.40;;;17.10;99.90;;;;;;5073928;28;21019;-76
2022/09/15 03:46:36;;;;;;;0.93;0.30;;;17.10;99.90;;;;;;5074325;28;20441;-75
2022/09/15 03:49:03;;;;;;;0.40;0.40;;;17.00;99.90;;;;;;5074033;28;20444;-76
2022/09/15 03:51:30;;;;;;;0.40;0.30;;;17.00;99.90;;;;;;5073942;28;20445;-76
2022/09/15 03:53:57;;;;;;;1.93;1.03;;;17.00;99.90;;;;;;5074099;28;20469;-76
2022/09/15 03:56:30;;;;;;;0.50;0.40;;;16.90;99.90;;;;;;5074234;28;20453;-75
2022/09/15 03:58:57;;;;;;;0.40;0.30;;;16.90;99.90;;;;;;5074074;28;20784;-76
2022/09/15 04:01:24;;;;;;;2.37;0.60;;;16.90;99.90;;;;;;5074048;28;20440;-76
2022/09/15 04:03:51;;;;;;;0.40;0.37;;;17.00;99.90;;;;;;5073792;28;20847;-76
2022/09/15 04:06:20;;;;;;;0.47;0.40;;;16.90;99.90;;;;;;5073983;28;20452;-76
2022/09/15 04:08:47;;;;;;;0.30;0.30;;;16.90;99.90;;;;;;5073539;28;20456;-76
2022/09/15 04:11:14;;;;;;;0.37;0.30;;;16.90;99.90;;;;;;5073587;28;20448;-75
2022/09/15 04:13:42;;;;;;;0.30;0.30;;;16.90;99.90;;;;;;5073753;28;20461;-76
2022/09/15 04:16:11;;;;;;;0.63;0.50;;;16.90;99.90;;;;;;5073443;28;20452;-76
2022/09/15 04:18:38;;;;;;;0.50;0.40;;;16.90;99.90;;;;;;5073767;28;20439;-76
2022/09/15 04:21:07;;;;;;;2.67;0.83;;;16.90;99.90;;;;;;5073715;28;20459;-75
2022/09/15 04:23:34;;;;;;;0.40;0.40;;;16.90;99.90;;;;;;5073544;28;20508;-76
2022/09/15 04:26:03;;;;;;;0.40;0.33;;;16.90;99.90;;;;;;5073430;28;20524;-76
2022/09/15 04:28:32;;;;;;;0.60;0.60;;;16.90;99.90;;;;;;5073604;28;20448;-75
2022/09/15 04:31:05;;;;;;;1.07;0.40;;;16.80;99.90;;;;;;5073363;28;20837;-75
2022/09/15 04:33:34;;;;;;;0.40;0.30;;;16.80;99.90;;;;;;5073169;28;20463;-76
2022/09/15 04:36:01;;;;;;;0.50;0.40;;;16.70;99.90;;;;;;5073250;28;20433;-75
2022/09/15 04:38:30;;;;;;;0.70;0.40;;;16.80;99.90;;;;;;5073235;28;20455;-76
2022/09/15 04:40:57;;;;;;;0.40;0.30;;;16.70;99.90;;;;;;5073450;28;20598;-76
2022/09/15 04:43:24;;;;;;;0.70;0.50;;;16.80;99.90;;;;;;5073288;28;20520;-76
2022/09/15 04:45:52;;;;;;;0.33;0.33;;;16.80;99.90;;;;;;5073130;28;20437;-75
2022/09/15 04:48:20;;;;;;;0.40;0.30;;;16.80;99.90;;;;;;5073346;28;20449;-75
2022/09/15 04:50:47;;;;;;;0.30;0.30;;;16.80;99.90;;;;;;5073376;28;20460;-76
2022/09/15 04:53:14;;;;;;;0.90;0.70;;;16.80;99.90;;;;;;5072406;28;20473;-76
2022/09/15 04:55:41;;;;;;;0.50;0.50;;;16.80;99.90;;;;;;5073047;28;20775;-75
2022/09/15 04:58:08;;;;;;;0.30;0.30;;;16.80;99.90;;;;;;5073309;28;20449;-76
2022/09/15 05:00:42;;;;;;;0.50;0.40;;;16.70;99.90;;;;;;5073016;28;20451;-76
2022/09/15 05:03:09;;;;;;;0.50;0.30;;;16.80;99.90;;;;;;5073218;28;20469;-75
2022/09/15 05:05:37;;;;;;;0.30;0.20;;;16.80;99.90;;;;;;5073267;28;20444;-76
2022/09/15 05:08:04;;;;;;;0.30;0.30;;;16.90;99.90;;;;;;5073249;28;20425;-75
2022/09/15 05:10:32;;;;;;;0.40;0.30;;;16.90;99.90;;;;;;5073136;28;20436;-76
2022/09/15 05:12:58;;;;;;;0.40;0.30;;;16.90;99.90;;;;;;5073137;28;20460;-75
2022/09/15 05:15:25;;;;;;;0.37;0.30;;;16.90;99.90;;;;;;5073141;28;20441;-76
2022/09/15 05:17:52;;;;;;;0.40;0.40;;;16.90;99.90;;;;;;5072965;28;20460;-77
2022/09/15 05:20:19;;;;;;;0.30;0.30;;;16.90;99.90;;;;;;5073070;28;20444;-77
2022/09/15 05:22:47;;;;;;;1.43;0.30;;;16.90;99.90;;;;;;5072706;28;21018;-76
2022/09/15 05:25:14;;;;;;;0.30;0.30;;;16.90;99.90;;;;;;5073050;28;20498;-76
2022/09/15 05:27:41;;;;;;;0.40;0.30;;;16.90;99.90;;;;;;5072711;28;20500;-76
2022/09/15 05:30:09;;;;;;;0.87;0.30;;;16.90;99.90;;;;;;5072684;28;20440;-76
2022/09/15 05:32:36;;;;;;;0.30;0.30;;;16.90;99.90;;;;;;5072583;28;20457;-77
2022/09/15 05:35:04;;;;;;;0.40;0.30;;;16.90;99.90;;;;;;5072636;28;20444;-77
2022/09/15 05:37:32;;;;;;;0.40;0.40;;;17.00;99.90;;;;;;5072715;28;20468;-77
2022/09/15 05:40:01;;;;;;;0.30;0.20;;;17.00;99.90;;;;;;5072914;28;20441;-76
2022/09/15 05:42:30;;;;;;;0.30;0.30;;;17.00;99.90;;;;;;5072807;28;20828;-76
2022/09/15 05:44:57;;;;;;;0.30;0.30;;;17.00;99.90;;;;;;5072545;28;20526;-76
2022/09/15 05:47:24;;;;;;;0.40;0.33;;;17.00;99.90;;;;;;5072816;28;20457;-76
2022/09/15 05:49:52;;;;;;;0.30;0.30;;;17.00;99.90;;;;;;5072760;28;20548;-76
2022/09/15 05:52:19;;;;;;;0.30;0.30;;;17.00;99.90;;;;;;5072719;28;20453;-76
2022/09/15 05:54:46;;;;;;;0.83;0.37;;;17.00;99.90;;;;;;5072461;28;20425;-76
2022/09/15 05:57:14;;;;;;;8.23;0.40;;;17.10;99.90;;;;;;5072674;28;20491;-76
2022/09/15 05:59:42;;;;;;;0.30;0.30;;;17.10;99.90;;;;;;5072776;28;20433;-76
2022/09/15 06:02:10;;;;;;;0.40;0.40;;;17.10;99.90;;;;;;5072606;28;20457;-76
2022/09/15 06:04:37;;;;;;;0.53;0.40;;;17.10;99.90;;;;;;5074893;28;20512;-76
2022/09/15 06:07:03;;;;;;;1.23;0.40;;;17.10;99.90;;;;;;5076314;28;20924;-76
2022/09/15 06:09:30;;;;;;;0.40;0.30;;;17.10;99.90;;;;;;5076250;28;20436;-76
2022/09/15 06:11:57;;;;;;;1.37;0.43;;;17.10;99.90;;;;;;5076187;28;20456;-76
2022/09/15 06:14:25;;;;;;;0.30;0.30;;;17.20;99.90;;;;;;5076073;28;20508;-76
2022/09/15 06:16:52;;;;;;;0.30;0.30;;;17.20;99.90;;;;;;5076057;28;20510;-76
2022/09/15 06:19:19;;;;;;;0.30;0.30;;;17.20;99.90;;;;;;5076048;28;20456;-76
2022/09/15 06:21:46;;;;;;;0.30;0.30;;;17.20;99.90;;;;;;5075999;28;20448;-76
2022/09/15 06:24:12;;;;;;;0.30;0.30;;;17.20;99.90;;;;;;5075511;28;20530;-76
2022/09/15 06:26:39;;;;;;;0.30;0.20;;;17.10;99.90;;;;;;5075745;28;20481;-76
2022/09/15 06:29:06;;;;;;;0.40;0.40;;;17.10;99.90;;;;;;5075668;28;20425;-76
2022/09/15 06:31:35;;;;;;;0.60;0.60;;;17.10;99.90;;;;;;5075559;28;20433;-76
2022/09/15 06:34:02;;;;;;;0.40;0.30;;;17.20;99.90;;;;;;5075704;28;20461;-76
2022/09/15 06:36:30;;;;;;;0.30;0.30;;;17.30;99.90;;;;;;5075753;28;20456;-76
2022/09/15 06:38:58;;;;;;;0.83;0.30;;;17.30;99.90;;;;;;5075721;28;20445;-77
2022/09/15 06:41:27;;;;;;;0.70;0.30;;;17.30;99.90;;;;;;5075661;28;20447;-76
2022/09/15 06:43:55;;;;;;;0.40;0.33;;;17.30;99.90;;;;;;5075116;28;20477;-77
2022/09/15 06:46:27;;;;;;;0.90;0.30;;;17.20;99.90;;;;;;5075522;28;20453;-76
2022/09/15 06:48:55;;;;;;;0.40;0.40;;;17.10;99.90;;;;;;5075562;28;20440;-76
2022/09/15 06:51:24;;;;;;;0.40;0.40;;;17.00;99.90;;;;;;5075520;28;20449;-76
2022/09/15 06:53:54;;;;;;;0.30;0.30;;;17.00;99.90;;;;;;5075377;28;20908;-81
2022/09/15 06:56:22;;;;;;;0.40;0.40;;;17.00;99.90;;;;;;5075374;28;20506;-81
2022/09/15 06:58:49;;;;;;;0.30;0.30;;;16.90;99.90;;;;;;5075375;28;20441;-81
2022/09/15 07:01:21;;;;;;;0.50;0.47;;;16.90;99.90;;;;;;5075262;28;20448;-81
2022/09/15 07:03:48;;;;;;;0.40;0.30;;;16.90;99.90;;;;;;5075868;28;20473;-81
2022/09/15 07:06:17;;;;;;;0.40;0.40;;;16.90;99.90;;;;;;5075244;28;20463;-81
2022/09/15 07:08:45;;;;;;;0.40;0.30;;;16.90;99.90;;;;;;5074816;28;20827;-81
2022/09/15 07:11:13;;;;;;;0.40;0.40;;;17.00;99.90;;;;;;5075057;28;20455;-81
2022/09/15 07:13:40;;;;;;;0.40;0.40;;;17.00;99.90;;;;;;5074665;28;20461;-81
2022/09/15 07:16:08;;;;;;;1.70;0.30;;;17.00;99.90;;;;;;5074242;28;20452;-81
2022/09/15 07:18:35;;;;;;;0.30;0.30;;;17.00;99.90;;;;;;5074971;28;20452;-81
2022/09/15 07:21:04;;;;;;;1.67;0.33;;;17.00;99.90;;;;;;5074850;28;20445;-81
2022/09/15 07:23:33;;;;;;;0.40;0.30;;;17.00;99.90;;;;;;5074835;28;20565;-80
2022/09/15 07:26:07;;;;;;;0.40;0.30;;;17.00;99.90;;;;;;5074724;28;20566;-80
2022/09/15 07:28:35;;;;;;;0.40;0.37;;;17.00;99.90;;;;;;5075590;28;20436;-80
2022/09/15 07:31:02;;;;;;;0.30;0.30;;;17.10;99.90;;;;;;5074352;28;20444;-80
2022/09/15 07:33:29;;;;;;;0.60;0.40;;;17.10;99.90;;;;;;5074264;28;20461;-80
2022/09/15 07:35:55;;;;;;;0.30;0.20;;;17.10;99.90;;;;;;5074589;28;20441;-81
2022/09/15 07:38:22;;;;;;;0.40;0.30;;;17.10;99.90;;;;;;5074539;28;20455;-81
2022/09/15 07:40:51;;;;;;;0.60;0.30;;;17.20;99.90;;;;;;5074493;28;20445;-81
2022/09/15 07:43:17;;;;;;;0.40;0.40;;;17.10;99.90;;;;;;5074388;28;20490;-81
2022/09/15 07:45:44;;;;;;;0.50;0.30;;;17.10;99.90;;;;;;5074325;28;20488;-81
2022/09/15 07:48:11;;;;;;;0.43;0.30;;;17.10;99.90;;;;;;5074333;28;20444;-81
2022/09/15 07:50:38;;;;;;;0.37;0.30;;;17.10;99.90;;;;;;5074298;28;20452;-81
2022/09/15 07:53:05;;;;;;;0.40;0.30;;;17.20;99.90;;;;;;5074160;28;20469;-81
2022/09/15 07:55:32;;;;;;;0.30;0.30;;;17.10;99.90;;;;;;5074210;28;20449;-81
2022/09/15 07:58:01;;;;;;;0.50;0.40;;;17.10;99.90;;;;;;5074185;28;20449;-81
2022/09/15 08:00:28;;;;;;;0.30;0.20;;;17.10;99.90;;;;;;5074096;28;20455;-81
2022/09/15 08:02:55;;;;;;;0.60;0.37;;;17.10;99.90;;;;;;5074026;28;20526;-81
2022/09/15 08:05:22;;;;;;;1.73;0.30;;;17.10;99.90;;;;;;5073926;28;20485;-81
2022/09/15 08:07:50;;;;;;;0.30;0.30;;;17.00;99.90;;;;;;5073986;28;20464;-81
2022/09/15 08:10:16;;;;;;;0.40;0.40;;;16.90;99.90;;;;;;5073928;28;20441;-82
2022/09/15 08:12:43;;;;;;;0.40;0.40;;;16.90;99.90;;;;;;5073819;28;20468;-82
2022/09/15 08:15:11;;;;;;;6.53;0.40;;;16.90;99.90;;;;;;5073603;28;20941;-81
2022/09/15 08:17:38;;;;;;;0.50;0.40;;;16.80;99.90;;;;;;5073817;28;20463;-82
2022/09/15 08:20:06;;;;;;;1.07;0.30;;;16.80;99.90;;;;;;5073605;28;20433;-82
2022/09/15 08:22:33;;;;;;;0.43;0.40;;;16.80;99.90;;;;;;5073569;28;20576;-83
2022/09/15 08:25:00;;;;;;;0.50;0.40;;;16.80;99.90;;;;;;5073730;28;20476;-82
2022/09/15 08:27:26;;;;;;;0.40;0.30;;;16.80;99.90;;;;;;5073300;28;20473;-82
2022/09/15 08:29:53;;;;;;;0.60;0.40;;;16.90;99.90;;;;;;5073675;28;20452;-82
2022/09/15 08:32:21;;;;;;;0.60;0.40;;;16.90;99.90;;;;;;5073605;28;20448;-82
2022/09/15 08:34:48;;;;;;;0.70;0.70;;;17.00;99.90;;;;;;5073467;28;20440;-82
2022/09/15 08:37:15;;;;;;;0.40;0.30;;;17.10;99.90;;;;;;5073646;28;20456;-82
2022/09/15 08:39:42;;;;;;;0.30;0.30;;;17.20;99.90;;;;;;5073569;28;20444;-83
2022/09/15 08:42:15;;;;;;;0.30;0.30;;;17.30;99.90;;;;;;5073174;28;20456;-83
2022/09/15 08:44:48;;;;;;;0.50;0.30;;;17.40;99.90;;;;;;5073181;28;20460;-82
2022/09/15 08:47:17;;;;;;;0.40;0.40;;;17.30;99.90;;;;;;5073282;28;20418;-82
2022/09/15 08:49:56;;;;;;;1.53;0.37;;;17.30;99.90;;;;;;5073420;28;20441;-83
2022/09/15 08:52:30;;;;;;;0.40;0.40;;;17.20;99.90;;;;;;5073089;28;20920;-82
2022/09/15 08:55:00;;;;;;;0.40;0.30;;;17.30;99.90;;;;;;5073351;28;20448;-82
2022/09/15 08:57:27;;;;;;;0.30;0.20;;;17.20;99.90;;;;;;5073350;28;20452;-82
2022/09/15 08:59:54;;;;;;;0.40;0.30;;;17.20;99.90;;;;;;5073037;28;20444;-82
2022/09/15 09:02:43;;;;;;;0.50;0.40;;;17.30;99.90;;;;;;5073219;28;20940;-82
2022/09/15 09:05:28;;;;;;;0.40;0.30;;;17.20;99.90;;;;;;5073216;28;20473;-82
2022/09/15 09:08:27;;;;;;;0.30;0.27;;;17.30;99.90;;;;;;5073282;28;20433;-82
2022/09/15 09:10:56;;;;;;;0.40;0.30;;;17.20;99.90;;;;;;5056072;28;20476;-81
2022/09/15 09:13:32;;;;;;;0.30;0.30;;;17.20;99.90;;;;;;5072981;28;20472;-82
2022/09/15 09:16:12;;;;;;;0.30;0.30;;;17.30;99.90;;;;;;5073279;28;20422;-82
2022/09/15 09:18:59;;;;;;;2.40;0.53;;;17.30;99.90;;;;;;5073204;28;20472;-82
2022/09/15 09:21:30;;;;;;;0.40;0.33;;;17.30;99.90;;;;;;5072837;28;20429;-82
2022/09/15 09:24:04;;;;;;;0.30;0.30;;;17.30;99.90;;;;;;5073060;28;20452;-82
2022/09/15 09:26:33;;;;;;;0.37;0.37;;;17.30;99.90;;;;;;5072546;28;20863;-82
2022/09/15 09:29:02;;;;;;;0.30;0.30;;;17.40;99.90;;;;;;5073075;28;20932;-82
2022/09/15 09:31:29;;;;;;;0.30;0.30;;;17.50;99.90;;;;;;5073020;28;20451;-83
2022/09/15 09:34:01;;;;;;;0.30;0.30;;;17.60;99.90;;;;;;5072980;28;20465;-83
2022/09/15 09:36:30;;;;;;;0.33;0.30;;;17.70;99.90;;;;;;5073021;28;20425;-83
2022/09/15 09:38:57;;;;;;;0.30;0.30;;;17.80;99.90;;;;;;5074378;28;20437;-83
2022/09/15 09:41:34;;;;;;;1.23;0.63;;;17.70;99.90;;;;;;5076779;28;20447;-83
2022/09/15 09:44:03;;;;;;;0.40;0.40;;;17.70;99.90;;;;;;5076416;28;20480;-83
2022/09/15 09:46:30;;;;;;;0.60;0.30;;;17.60;99.90;;;;;;5076624;28;20476;-83
2022/09/15 09:49:03;;;;;;;0.30;0.30;;;17.60;99.90;;;;;;5076632;28;20457;-83
2022/09/15 09:51:38;;;;;;;0.30;0.30;;;17.70;99.90;;;;;;5076674;28;20412;-83
2022/09/15 09:54:09;;;;;;;0.30;0.30;;;17.70;99.90;;;;;;5076190;28;20464;-83
2022/09/15 09:56:36;;;;;;;1.13;0.40;;;17.80;99.90;;;;;;5076501;28;20439;-83
2022/09/15 09:59:03;;;;;;;0.30;0.30;;;17.80;99.90;;;;;;5076449;28;20449;-83
2022/09/15 10:01:30;;;;;;;0.40;0.37;;;17.90;99.90;;;;;;5076413;28;20457;-83
2022/09/15 10:04:11;;;;;;;0.40;0.30;;;18.00;99.90;;;;;;5076292;28;20472;-83
2022/09/15 10:06:41;;;;;;;0.73;0.37;;;18.00;99.90;;;;;;5076036;28;21006;-83
2022/09/15 10:09:13;;;;;;;0.43;0.30;;;18.00;99.90;;;;;;5076254;28;20457;-84
2022/09/15 10:11:43;;;;;;;0.40;0.30;;;18.00;99.90;;;;;;5076280;28;20444;-83
2022/09/15 10:14:20;;;;;;;0.40;0.30;;;18.00;99.90;;;;;;5075850;28;20469;-82
2022/09/15 10:17:00;;;;;;;0.40;0.40;;;18.00;99.90;;;;;;5076148;28;20429;-80
2022/09/15 10:19:28;;;;;;;0.30;0.20;;;18.00;99.90;;;;;;5075790;28;20917;-81
2022/09/15 10:21:59;;;;;;;0.30;0.30;;;17.90;99.90;;;;;;5076112;28;20506;-79
2022/09/15 10:24:39;;;;;;;0.40;0.40;;;17.70;99.90;;;;;;5075686;28;20984;-80
2022/09/15 10:27:15;;;;;;;0.40;0.30;;;17.60;99.90;;;;;;5075557;28;20499;-80
2022/09/15 10:29:42;;;;;;;0.40;0.30;;;17.40;99.90;;;;;;5075999;28;20435;-81
2022/09/15 10:32:17;;;;;;;0.30;0.30;;;17.30;99.90;;;;;;5075450;28;21010;-81
2022/09/15 10:34:44;;;;;;;0.40;0.30;;;17.20;99.90;;;;;;5075624;28;20911;-82
2022/09/15 10:37:24;;;;;;;0.40;0.30;;;17.00;99.90;;;;;;5075777;28;20451;-82
2022/09/15 10:39:56;;;;;;;0.30;0.20;;;16.80;99.90;;;;;;5075820;28;20429;-82
2022/09/15 10:42:36;;;;;;;0.30;0.20;;;16.60;99.90;;;;;;5075651;28;20531;-81
2022/09/15 10:45:16;;;;;;;0.30;0.20;;;16.50;99.90;;;;;;5076162;28;20444;-81
2022/09/15 10:48:01;;;;;;;0.30;0.20;;;16.40;99.90;;;;;;5075589;28;20425;-81
2022/09/15 10:50:31;;;;;;;0.40;0.30;;;16.40;99.90;;;;;;5074121;28;20924;-81
2022/09/15 10:53:14;;;;;;;0.30;0.30;;;16.30;99.90;;;;;;5075455;28;20469;-81
2022/09/15 10:55:49;;;;;;;0.30;0.20;;;16.30;99.90;;;;;;5075244;28;20909;-81
2022/09/15 10:58:30;;;;;;;0.30;0.20;;;16.20;99.90;;;;;;5075721;28;20509;-81
2022/09/15 11:01:09;;;;;;;0.30;0.30;;;16.10;99.90;;;;;;5075371;28;20433;-81
2022/09/15 11:03:59;;;;;;;0.30;0.20;;;16.10;99.90;;;;;;5075236;28;20471;-81
2022/09/15 11:06:29;;;;;;;0.40;0.30;;;16.00;99.90;;;;;;5075163;28;20469;-81
2022/09/15 11:09:14;;;;;;;0.37;0.33;;;15.90;99.90;;;;;;5075152;28;20487;-82
2022/09/15 11:11:54;;;;;;;0.30;0.30;;;15.90;99.90;;;;;;5075018;28;20419;-82
2022/09/15 11:14:43;;;;;;;0.60;0.30;;;15.90;99.90;;;;;;5075303;28;20464;-82
2022/09/15 11:17:26;;;;;;;0.30;0.30;;;15.80;99.90;;;;;;5075062;28;20441;-82
2022/09/15 11:20:11;;;;;;;0.30;0.30;;;15.80;99.90;;;;;;5075001;28;20544;-82
2022/09/15 11:22:43;;;;;;;0.30;0.20;;;15.70;99.90;;;;;;5074832;28;20468;-81
2022/09/15 11:25:17;;;;;;;0.50;0.30;;;15.60;99.90;;;;;;5074691;28;20905;-81
2022/09/15 11:27:49;;;;;;;0.30;0.30;;;15.60;99.90;;;;;;5074343;28;20475;-81
2022/09/15 11:30:18;;;;;;;0.30;0.30;;;15.50;99.90;;;;;;5074432;28;20940;-81
2022/09/15 11:32:50;;;;;;;0.40;0.40;;;15.40;99.90;;;;;;5074893;28;20460;-81
2022/09/15 11:35:36;;;;;;;0.37;0.37;;;15.40;99.90;;;;;;5074666;28;20444;-81
2022/09/15 11:38:23;;;;;;;1.10;0.37;;;15.40;99.90;;;;;;5074278;28;20843;-81
2022/09/15 11:40:58;;;;;;;0.30;0.30;;;15.40;99.90;;;;;;5074194;28;20915;-81
2022/09/15 11:43:33;;;;;;;0.57;0.57;;;15.40;99.90;;;;;;5074420;28;20479;-80
2022/09/15 11:46:06;;;;;;;0.30;0.20;;;15.40;99.90;;;;;;5074406;28;20974;-81
2022/09/15 11:48:39;;;;;;;0.40;0.30;;;15.40;99.90;;;;;;5074086;28;20433;-81
2022/09/15 11:51:07;;;;;;;1.03;0.50;;;15.40;99.90;;;;;;5074332;28;20433;-81
2022/09/15 11:53:39;;;;;;;0.70;0.40;;;15.40;99.90;;;;;;5073971;28;20464;-82
2022/09/15 11:56:18;;;;;;;0.40;0.40;;;15.30;99.90;;;;;;5074240;28;20433;-82
2022/09/15 11:59:00;;;;;;;0.83;0.50;;;15.20;99.90;;;;;;5073892;28;20413;-81
2022/09/15 12:01:31;;;;;;;0.50;0.40;;;15.30;99.90;;;;;;5073566;28;20429;-81
2022/09/15 12:04:01;;;;;;;0.60;0.50;;;15.20;99.90;;;;;;5074035;28;20480;-81
2022/09/15 12:06:34;;;;;;;0.40;0.30;;;15.20;99.90;;;;;;5073986;28;20465;-83
2022/09/15 12:09:03;;;;;;;0.60;0.60;;;15.30;99.90;;;;;;5073711;28;20440;-81
2022/09/15 12:11:35;;;;;;;0.40;0.40;;;15.30;99.90;;;;;;5073651;28;20944;-81
2022/09/15 12:14:03;;;;;;;0.97;0.97;;;15.30;99.90;;;;;;5073863;28;20491;-81
2022/09/15 12:16:31;;;;;;;0.30;0.30;;;15.30;99.90;;;;;;5073525;28;20445;-82
2022/09/15 12:19:03;;;;;;;0.57;0.30;;;15.10;99.90;;;;;;5073807;28;20460;-82
2022/09/15 12:21:35;;;;;;;0.57;0.57;;;15.20;99.90;;;;;;5073860;28;20843;-81
2022/09/15 12:24:12;;;;;;;0.40;0.40;;;15.10;99.90;;;;;;5073727;28;20530;-81
2022/09/15 12:26:42;;;;;;;0.60;0.43;;;15.00;99.90;;;;;;5073282;28;20480;-81
2022/09/15 12:29:31;;;;;;;0.87;0.53;;;15.00;99.90;;;;;;5074006;28;20485;-81
2022/09/15 12:32:20;;;;;;;0.40;0.40;;;15.00;99.90;;;;;;5073979;28;20433;-81
2022/09/15 12:35:02;;;;;;;0.50;0.40;;;15.00;99.90;;;;;;5073637;28;20429;-81
2022/09/15 12:37:39;;;;;;;0.50;0.50;;;14.90;99.90;;;;;;5073618;28;20425;-82
2022/09/15 12:40:24;;;;;;;0.47;0.47;;;14.90;99.90;;;;;;5073274;28;20436;-81
2022/09/15 12:42:52;;;;;;;0.40;0.40;;;14.80;99.90;;;;;;5073192;28;20460;-81
2022/09/15 12:45:23;;;;;;;0.40;0.40;;;14.80;99.90;;;;;;5073487;28;20449;-81
2022/09/15 12:47:54;;;;;;;0.40;0.30;;;14.90;99.90;;;;;;5073252;28;20972;-78
2022/09/15 12:50:25;;;;;;;0.67;0.50;;;15.00;99.90;;;;;;5073494;28;20430;-78
2022/09/15 12:52:54;;;;;;;0.37;0.30;;;15.20;99.90;;;;;;5073064;28;21018;-78
2022/09/15 12:55:23;;;;;;;1.07;0.40;;;15.30;99.90;;;;;;5073289;28;20433;-78
2022/09/15 12:57:54;;;;;;;1.87;0.50;;;15.30;99.90;;;;;;5073350;28;20806;-78
2022/09/15 13:00:33;;;;;;;0.67;0.67;;;15.40;99.90;;;;;;5073338;28;20452;-78
2022/09/15 13:03:01;;;;;;;0.57;0.40;;;15.50;99.90;;;;;;5073222;28;20511;-81
2022/09/15 13:06:16;;;;;;;0.50;0.50;;;15.60;99.90;;;;;;5073293;28;20517;-82
2022/09/15 13:08:50;;;;;;;6.63;0.80;;;15.80;99.90;;;;;;5072937;28;20956;-82
2022/09/15 13:11:22;;;;;;;0.60;0.50;;;15.90;99.90;;;;;;5072924;28;20441;-81